TIGER10 KFLL-TNCM
Flight info
| Callsign | TIGER10 |
|---|---|
| Flight time | N/A |
| Altitude | 41000 |
| Route | SNAPR2 SUMAC Y421 HAGIT Y290 SLUGO |
| Aircraft | B737/M-SDE2E3FGHIRWXY/LB1 |
Departure
| Time | 2026-05-04 20:20 |
|---|---|
| Airport | Fort Lauderdale Hollywood International Airport (KFLL) |
Arrival
| Time | N/A |
|---|---|
| Airport | Princess Juliana International Airport (TNCM) |
| Time | Latitude | Longitude | Altitude | Speed | Heading |
|---|---|---|---|---|---|
| 2026-05-04 19:57 | 26.06825 | -80.14889 | 10 ft | 0 kts | 0° |
| 2026-05-04 20:17 | 26.06852 | -80.14878 | 10 ft | 10 kts | 59° |
| 2026-05-04 20:17 | 26.06788 | -80.14868 | 10 ft | 14 kts | 230° |
| 2026-05-04 20:17 | 26.06767 | -80.14968 | 10 ft | 12 kts | 271° |
| 2026-05-04 20:17 | 26.06768 | -80.15076 | 10 ft | 17 kts | 269° |
| 2026-05-04 20:18 | 26.06769 | -80.15232 | 10 ft | 20 kts | 270° |
| 2026-05-04 20:18 | 26.06760 | -80.15372 | 10 ft | 14 kts | 231° |
| 2026-05-04 20:18 | 26.06692 | -80.15421 | 10 ft | 11 kts | 271° |
| 2026-05-04 20:18 | 26.06697 | -80.15544 | 10 ft | 22 kts | 272° |
| 2026-05-04 20:19 | 26.06699 | -80.15705 | 10 ft | 13 kts | 268° |
| 2026-05-04 20:19 | 26.06698 | -80.15791 | 10 ft | 10 kts | 261° |
| 2026-05-04 20:19 | 26.06643 | -80.15821 | 10 ft | 9 kts | 180° |
| 2026-05-04 20:19 | 26.06591 | -80.15793 | 10 ft | 8 kts | 115° |
| 2026-05-04 20:20 | 26.06588 | -80.15685 | 10 ft | 24 kts | 90° |
| 2026-05-04 20:20 | 26.06586 | -80.15228 | 11 ft | 107 kts | 91° |
| 2026-05-04 20:20 | 26.06550 | -80.14209 | 652 ft | 138 kts | 92° |
| 2026-05-04 20:20 | 26.06532 | -80.13220 | 1698 ft | 141 kts | 88° |
| 2026-05-04 20:21 | 26.06548 | -80.11948 | 2209 ft | 182 kts | 87° |
| 2026-05-04 20:21 | 26.06563 | -80.10522 | 3044 ft | 204 kts | 88° |
| 2026-05-04 20:21 | 26.06657 | -80.06795 | 4454 ft | 279 kts | 86° |
| 2026-05-04 20:22 | 26.06753 | -80.04617 | 5816 ft | 290 kts | 86° |
| 2026-05-04 20:22 | 26.06940 | -80.02375 | 7059 ft | 303 kts | 84° |
| 2026-05-04 20:22 | 26.06956 | -80.00101 | 8791 ft | 298 kts | 92° |
| 2026-05-04 20:22 | 26.06807 | -79.97844 | 10137 ft | 304 kts | 92° |
| 2026-05-04 20:23 | 26.06729 | -79.95443 | 11068 ft | 324 kts | 90° |
| 2026-05-04 20:23 | 26.06686 | -79.92820 | 11743 ft | 352 kts | 92° |
| 2026-05-04 20:23 | 26.06645 | -79.90018 | 12434 ft | 377 kts | 92° |
| 2026-05-04 20:23 | 26.06605 | -79.86981 | 13154 ft | 401 kts | 91° |
| 2026-05-04 20:24 | 26.06557 | -79.83860 | 14136 ft | 414 kts | 94° |
| 2026-05-04 20:24 | 26.06232 | -79.80694 | 15209 ft | 422 kts | 101° |
| 2026-05-04 20:24 | 26.05695 | -79.77456 | 16312 ft | 430 kts | 102° |
| 2026-05-04 20:24 | 26.05153 | -79.74116 | 17340 ft | 439 kts | 101° |
| 2026-05-04 20:25 | 26.04632 | -79.70744 | 18355 ft | 447 kts | 101° |
| 2026-05-04 20:25 | 26.04107 | -79.67353 | 19318 ft | 455 kts | 101° |
| 2026-05-04 20:25 | 26.03546 | -79.63851 | 20285 ft | 462 kts | 102° |
| 2026-05-04 20:25 | 26.02802 | -79.60368 | 21222 ft | 468 kts | 107° |
| 2026-05-04 20:26 | 26.01926 | -79.56854 | 22110 ft | 475 kts | 107° |
| 2026-05-04 20:26 | 26.01050 | -79.53283 | 22960 ft | 482 kts | 106° |
| 2026-05-04 20:26 | 26.00198 | -79.49702 | 23798 ft | 488 kts | 106° |
| 2026-05-04 20:26 | 25.99339 | -79.46070 | 24594 ft | 494 kts | 106° |
| 2026-05-04 20:27 | 25.98449 | -79.42321 | 25360 ft | 501 kts | 106° |
| 2026-05-04 20:27 | 25.97538 | -79.38577 | 26085 ft | 507 kts | 108° |
| 2026-05-04 20:27 | 25.96371 | -79.34821 | 26799 ft | 512 kts | 113° |
| 2026-05-04 20:27 | 25.95034 | -79.31114 | 27479 ft | 518 kts | 114° |
| 2026-05-04 20:28 | 25.93700 | -79.27415 | 28091 ft | 524 kts | 114° |
| 2026-05-04 20:28 | 25.92608 | -79.24303 | 28619 ft | 529 kts | 113° |
| 2026-05-04 20:28 | 25.91412 | -79.20863 | 29120 ft | 535 kts | 113° |
| 2026-05-04 20:28 | 25.90044 | -79.16934 | 29881 ft | 535 kts | 113° |
| 2026-05-04 20:29 | 25.88721 | -79.13144 | 30934 ft | 529 kts | 114° |
| 2026-05-04 20:29 | 25.87405 | -79.09374 | 31796 ft | 526 kts | 114° |
| 2026-05-04 20:29 | 25.86080 | -79.05584 | 32633 ft | 523 kts | 114° |
| 2026-05-04 20:29 | 25.84777 | -79.01859 | 33434 ft | 520 kts | 115° |
| 2026-05-04 20:30 | 25.83467 | -78.98116 | 34178 ft | 518 kts | 115° |
| 2026-05-04 20:30 | 25.82176 | -78.94437 | 34895 ft | 516 kts | 115° |
| 2026-05-04 20:30 | 25.80871 | -78.90721 | 35543 ft | 515 kts | 116° |
| 2026-05-04 20:30 | 25.79583 | -78.87060 | 36124 ft | 515 kts | 116° |
| 2026-05-04 20:31 | 25.78271 | -78.83336 | 36611 ft | 517 kts | 116° |
| 2026-05-04 20:31 | 25.76973 | -78.79652 | 37099 ft | 519 kts | 116° |
| 2026-05-04 20:31 | 25.75612 | -78.75936 | 37563 ft | 518 kts | 119° |
| 2026-05-04 20:31 | 25.74059 | -78.72332 | 38002 ft | 515 kts | 124° |
| 2026-05-04 20:32 | 25.72263 | -78.68967 | 38415 ft | 512 kts | 130° |
| 2026-05-04 20:32 | 25.70293 | -78.65672 | 38843 ft | 511 kts | 131° |
| 2026-05-04 20:32 | 25.68334 | -78.62437 | 39244 ft | 513 kts | 131° |
| 2026-05-04 20:32 | 25.66348 | -78.59123 | 39608 ft | 515 kts | 131° |
| 2026-05-04 20:33 | 25.64392 | -78.55862 | 40010 ft | 515 kts | 131° |
| 2026-05-04 20:33 | 25.62398 | -78.52564 | 40420 ft | 514 kts | 131° |
| 2026-05-04 20:33 | 25.60462 | -78.49193 | 40747 ft | 520 kts | 126° |
| 2026-05-04 20:33 | 25.58782 | -78.45673 | 40999 ft | 526 kts | 122° |
| 2026-05-04 20:34 | 25.56042 | -78.38080 | 41000 ft | 537 kts | 111° |
| 2026-05-04 20:34 | 25.54028 | -78.30122 | 41003 ft | 533 kts | 111° |
| 2026-05-04 20:35 | 25.51976 | -78.22282 | 41001 ft | 532 kts | 111° |
| 2026-05-04 20:35 | 25.49934 | -78.14424 | 40999 ft | 534 kts | 111° |
| 2026-05-04 20:36 | 25.47900 | -78.06549 | 41000 ft | 534 kts | 111° |
| 2026-05-04 20:36 | 25.45864 | -77.98677 | 41000 ft | 534 kts | 111° |
| 2026-05-04 20:37 | 25.43821 | -77.90788 | 41000 ft | 534 kts | 111° |
| 2026-05-04 20:37 | 25.41769 | -77.82882 | 40999 ft | 535 kts | 111° |
| 2026-05-04 20:38 | 25.39729 | -77.75037 | 41000 ft | 534 kts | 111° |
| 2026-05-04 20:38 | 25.37662 | -77.67106 | 41000 ft | 535 kts | 110° |
| 2026-05-04 20:39 | 25.35596 | -77.59200 | 40999 ft | 537 kts | 110° |
| 2026-05-04 20:39 | 25.33524 | -77.51286 | 41000 ft | 537 kts | 110° |
| 2026-05-04 20:40 | 25.31440 | -77.43354 | 41000 ft | 536 kts | 111° |
| 2026-05-04 20:40 | 25.28930 | -77.35669 | 40999 ft | 529 kts | 119° |
| 2026-05-04 20:41 | 25.25392 | -77.28693 | 41000 ft | 519 kts | 130° |
| 2026-05-04 20:41 | 25.21501 | -77.21995 | 40999 ft | 521 kts | 129° |
| 2026-05-04 20:42 | 25.17644 | -77.15234 | 40999 ft | 522 kts | 129° |
| 2026-05-04 20:42 | 25.13737 | -77.08501 | 40999 ft | 521 kts | 130° |
| 2026-05-04 20:43 | 25.09830 | -77.01802 | 40999 ft | 521 kts | 130° |
| 2026-05-04 20:43 | 25.05919 | -76.95114 | 41000 ft | 521 kts | 130° |
| 2026-05-04 20:44 | 25.01998 | -76.88426 | 41000 ft | 521 kts | 130° |
| 2026-05-04 20:44 | 24.98074 | -76.81747 | 41000 ft | 521 kts | 130° |
| 2026-05-04 20:45 | 24.94126 | -76.75035 | 41000 ft | 521 kts | 130° |
| 2026-05-04 20:45 | 24.90188 | -76.68352 | 41000 ft | 521 kts | 130° |
| 2026-05-04 20:46 | 24.86265 | -76.61705 | 41000 ft | 521 kts | 130° |
| 2026-05-04 20:46 | 24.82288 | -76.54977 | 40999 ft | 522 kts | 130° |
| 2026-05-04 20:47 | 24.78359 | -76.48338 | 40999 ft | 522 kts | 130° |
| 2026-05-04 20:47 | 24.74397 | -76.41650 | 40999 ft | 521 kts | 130° |
| 2026-05-04 20:48 | 24.70450 | -76.35001 | 40999 ft | 521 kts | 130° |
| 2026-05-04 20:48 | 24.66494 | -76.28342 | 41000 ft | 520 kts | 130° |
| 2026-05-04 20:49 | 24.62543 | -76.21703 | 41000 ft | 520 kts | 130° |
| 2026-05-04 20:49 | 24.58586 | -76.15064 | 40999 ft | 521 kts | 130° |
| 2026-05-04 20:50 | 24.54695 | -76.08356 | 41023 ft | 522 kts | 128° |
| 2026-05-04 20:50 | 24.50937 | -76.01527 | 41021 ft | 523 kts | 128° |
| 2026-05-04 20:51 | 24.47151 | -75.94749 | 41022 ft | 522 kts | 128° |
| 2026-05-04 20:51 | 24.43353 | -75.87969 | 41025 ft | 522 kts | 128° |
| 2026-05-04 20:52 | 24.39545 | -75.81182 | 41027 ft | 523 kts | 128° |
| 2026-05-04 20:52 | 24.35730 | -75.74396 | 41027 ft | 524 kts | 128° |
| 2026-05-04 20:53 | 24.31907 | -75.67604 | 41027 ft | 523 kts | 128° |
| 2026-05-04 20:53 | 24.28092 | -75.60837 | 41027 ft | 522 kts | 128° |
| 2026-05-04 20:54 | 24.24308 | -75.54134 | 41027 ft | 521 kts | 128° |
| 2026-05-04 20:54 | 24.20479 | -75.47362 | 41027 ft | 522 kts | 128° |
| 2026-05-04 20:55 | 24.16640 | -75.40582 | 41027 ft | 523 kts | 128° |
| 2026-05-04 20:55 | 24.12837 | -75.33874 | 41027 ft | 522 kts | 129° |
| 2026-05-04 20:56 | 24.09003 | -75.27122 | 41027 ft | 522 kts | 129° |
| 2026-05-04 20:56 | 24.05162 | -75.20367 | 41027 ft | 523 kts | 128° |
| 2026-05-04 20:57 | 24.01336 | -75.13648 | 41027 ft | 523 kts | 128° |
| 2026-05-04 20:57 | 23.97499 | -75.06917 | 41028 ft | 521 kts | 128° |
| 2026-05-04 20:58 | 23.93651 | -75.00177 | 41029 ft | 521 kts | 128° |
| 2026-05-04 20:58 | 23.89810 | -74.93457 | 41032 ft | 521 kts | 128° |
| 2026-05-04 20:59 | 23.85995 | -74.86793 | 41036 ft | 521 kts | 128° |
| 2026-05-04 20:59 | 23.82140 | -74.80066 | 41036 ft | 521 kts | 128° |
| 2026-05-04 21:00 | 23.78298 | -74.73373 | 41036 ft | 520 kts | 128° |
| 2026-05-04 21:00 | 23.74454 | -74.66685 | 41036 ft | 520 kts | 128° |
| 2026-05-04 21:01 | 23.70639 | -74.60055 | 41036 ft | 520 kts | 128° |
| 2026-05-04 21:01 | 23.66786 | -74.53371 | 41036 ft | 520 kts | 128° |
| 2026-05-04 21:02 | 23.62930 | -74.46688 | 41036 ft | 520 kts | 128° |
| 2026-05-04 21:02 | 23.59066 | -74.40003 | 41036 ft | 521 kts | 128° |
| 2026-05-04 21:03 | 23.55224 | -74.33361 | 41036 ft | 521 kts | 128° |
| 2026-05-04 21:03 | 23.51361 | -74.26691 | 41036 ft | 520 kts | 128° |
| 2026-05-04 21:04 | 23.47506 | -74.20048 | 41034 ft | 521 kts | 128° |
| 2026-05-04 21:04 | 23.43642 | -74.13396 | 41031 ft | 521 kts | 128° |
| 2026-05-04 21:05 | 23.39781 | -74.06759 | 41026 ft | 520 kts | 128° |
| 2026-05-04 21:05 | 23.35913 | -74.00117 | 41022 ft | 520 kts | 128° |
| 2026-05-04 21:06 | 23.32045 | -73.93485 | 41019 ft | 520 kts | 128° |
| 2026-05-04 21:06 | 23.28168 | -73.86846 | 41018 ft | 520 kts | 128° |
| 2026-05-04 21:07 | 23.24302 | -73.80234 | 41018 ft | 519 kts | 128° |
| 2026-05-04 21:07 | 23.20436 | -73.73629 | 41018 ft | 518 kts | 128° |
| 2026-05-04 21:08 | 23.16581 | -73.67054 | 41018 ft | 517 kts | 128° |
| 2026-05-04 21:08 | 23.12720 | -73.60477 | 41018 ft | 518 kts | 128° |
| 2026-05-04 21:09 | 23.08850 | -73.53892 | 41018 ft | 518 kts | 128° |
| 2026-05-04 21:09 | 23.04997 | -73.47344 | 41018 ft | 517 kts | 128° |
| 2026-05-04 21:10 | 23.01119 | -73.40763 | 41018 ft | 517 kts | 127° |
| 2026-05-04 21:10 | 22.97250 | -73.34205 | 41017 ft | 517 kts | 128° |
| 2026-05-04 21:11 | 22.93378 | -73.27650 | 41018 ft | 516 kts | 128° |
| 2026-05-04 21:11 | 22.89506 | -73.21107 | 41018 ft | 516 kts | 128° |
| 2026-05-04 21:12 | 22.85620 | -73.14547 | 41013 ft | 517 kts | 128° |
| 2026-05-04 21:12 | 22.81753 | -73.08024 | 41007 ft | 517 kts | 128° |
| 2026-05-04 21:13 | 22.77867 | -73.01479 | 41000 ft | 516 kts | 128° |
| 2026-05-04 21:13 | 22.73984 | -72.94949 | 40993 ft | 515 kts | 128° |
| 2026-05-04 21:14 | 22.70083 | -72.88396 | 40993 ft | 516 kts | 127° |
| 2026-05-04 21:14 | 22.66202 | -72.81883 | 40993 ft | 516 kts | 127° |
| 2026-05-04 21:15 | 22.62343 | -72.75416 | 40993 ft | 516 kts | 127° |
| 2026-05-04 21:15 | 22.58441 | -72.68884 | 40993 ft | 515 kts | 127° |
| 2026-05-04 21:16 | 22.54543 | -72.62369 | 40993 ft | 514 kts | 127° |
| 2026-05-04 21:16 | 22.50677 | -72.55914 | 40993 ft | 514 kts | 127° |
| 2026-05-04 21:17 | 22.46789 | -72.49432 | 40993 ft | 515 kts | 127° |
| 2026-05-04 21:17 | 22.43546 | -72.44030 | 40993 ft | 514 kts | 127° |
| 2026-05-04 21:18 | 22.39009 | -72.36483 | 40993 ft | 513 kts | 127° |
| 2026-05-04 21:18 | 22.35148 | -72.30067 | 40993 ft | 513 kts | 127° |
| 2026-05-04 21:19 | 22.31262 | -72.23618 | 40993 ft | 512 kts | 127° |
| 2026-05-04 21:19 | 22.27382 | -72.17188 | 40993 ft | 512 kts | 127° |
| 2026-05-04 21:20 | 22.23497 | -72.10760 | 40993 ft | 514 kts | 127° |
| 2026-05-04 21:20 | 22.19594 | -72.04306 | 40993 ft | 513 kts | 127° |
| 2026-05-04 21:21 | 22.15716 | -71.97900 | 40993 ft | 512 kts | 127° |
| 2026-05-04 21:21 | 22.11818 | -71.91471 | 40993 ft | 512 kts | 127° |
| 2026-05-04 21:22 | 22.08571 | -71.86122 | 40993 ft | 513 kts | 127° |
| 2026-05-04 21:22 | 22.04032 | -71.78653 | 40993 ft | 513 kts | 127° |
| 2026-05-04 21:23 | 22.00119 | -71.72221 | 40993 ft | 512 kts | 127° |
| 2026-05-04 21:23 | 21.96203 | -71.65793 | 40993 ft | 512 kts | 127° |
| 2026-05-04 21:24 | 21.92332 | -71.59447 | 40993 ft | 511 kts | 127° |
| 2026-05-04 21:24 | 21.88429 | -71.53054 | 40993 ft | 510 kts | 127° |
| 2026-05-04 21:25 | 21.84532 | -71.46682 | 40993 ft | 510 kts | 127° |
| 2026-05-04 21:25 | 21.80646 | -71.40333 | 40993 ft | 509 kts | 127° |
| 2026-05-04 21:26 | 21.76772 | -71.34013 | 40992 ft | 508 kts | 127° |
| 2026-05-04 21:26 | 21.72883 | -71.27672 | 40993 ft | 507 kts | 127° |
| 2026-05-04 21:27 | 21.69002 | -71.21353 | 40993 ft | 507 kts | 127° |
| 2026-05-04 21:27 | 21.65137 | -71.15069 | 40993 ft | 507 kts | 127° |
| 2026-05-04 21:28 | 21.61240 | -71.08740 | 40993 ft | 506 kts | 127° |
| 2026-05-04 21:28 | 21.57379 | -71.02477 | 40993 ft | 505 kts | 127° |
| 2026-05-04 21:29 | 21.53437 | -70.96246 | 40993 ft | 504 kts | 128° |
| 2026-05-04 21:29 | 21.49470 | -70.90039 | 40993 ft | 503 kts | 128° |
| 2026-05-04 21:30 | 21.45545 | -70.83871 | 40993 ft | 503 kts | 128° |
| 2026-05-04 21:30 | 21.41587 | -70.77663 | 40993 ft | 503 kts | 128° |
| 2026-05-04 21:31 | 21.35661 | -70.68378 | 40993 ft | 503 kts | 128° |
| 2026-05-04 21:32 | 21.31709 | -70.62193 | 40993 ft | 503 kts | 127° |
| 2026-05-04 21:32 | 21.27770 | -70.56035 | 40993 ft | 504 kts | 127° |